createdAt,value
2023-11-30T00:01:26.415Z,100401.25
2023-11-30T00:03:57.863Z,100397.75
2023-11-30T00:06:29.288Z,100398.53
2023-11-30T00:08:58.607Z,100393.31
2023-11-30T00:11:27.592Z,100401.06
2023-11-30T00:14:01.721Z,100399.22
2023-11-30T00:16:28.332Z,100398.38
2023-11-30T00:18:57.212Z,100406.19
2023-11-30T00:21:23.836Z,100398.38
2023-11-30T00:23:50.456Z,100401.91
2023-11-30T00:26:17.039Z,100398.44
2023-11-30T00:28:45.875Z,100394.09
2023-11-30T00:31:14.723Z,100391.56
2023-11-30T00:33:41.323Z,100388.13
2023-11-30T00:36:11.243Z,100381.25
2023-11-30T00:38:37.772Z,100383.88
2023-11-30T00:41:06.564Z,100382.19
2023-11-30T00:43:33.118Z,100377.91
2023-11-30T00:46:06.810Z,100372.78
2023-11-30T00:48:36.406Z,100377.16
2023-11-30T00:51:03.609Z,100367.69
2023-11-30T00:53:32.710Z,100374.66
2023-11-30T00:56:01.677Z,100378.19
2023-11-30T00:58:29.857Z,100379.00
2023-11-30T01:00:59.673Z,100378.25
2023-11-30T01:03:26.371Z,100378.19
2023-11-30T01:05:52.945Z,100374.72
2023-11-30T01:08:21.959Z,100373.03
2023-11-30T01:10:51.026Z,100376.50
2023-11-30T01:13:17.617Z,100361.66
2023-11-30T01:15:44.287Z,100363.31
2023-11-30T01:18:11.510Z,100367.59
2023-11-30T01:20:38.116Z,100358.88
2023-11-30T01:23:05.665Z,100356.28
2023-11-30T01:25:35.472Z,100358.03
2023-11-30T01:28:02.018Z,100351.22
2023-11-30T01:30:28.560Z,100359.91
2023-11-30T01:32:55.279Z,100351.34
2023-11-30T01:35:21.955Z,100347.06
2023-11-30T01:37:48.465Z,100348.91
2023-11-30T01:40:19.894Z,100346.41
2023-11-30T01:42:46.390Z,100345.63
2023-11-30T01:45:15.687Z,100343.03
2023-11-30T01:47:44.543Z,100348.28
2023-11-30T01:50:11.720Z,100352.63
2023-11-30T01:52:38.633Z,100351.78
2023-11-30T01:55:06.170Z,100351.75
2023-11-30T01:57:32.858Z,100344.78
2023-11-30T02:00:01.974Z,100343.94
2023-11-30T02:02:29.884Z,100344.78
2023-11-30T02:04:56.399Z,100344.78
2023-11-30T02:07:25.266Z,100347.31
2023-11-30T02:09:51.868Z,100341.97
2023-11-30T02:12:20.916Z,100340.16
2023-11-30T02:14:50.060Z,100334.97
2023-11-30T02:17:16.989Z,100334.97
2023-11-30T02:19:43.646Z,100340.09
2023-11-30T02:22:12.465Z,100339.25
2023-11-30T02:24:39.001Z,100340.09
2023-11-30T02:27:05.699Z,100330.59
2023-11-30T02:29:32.269Z,100328.00
2023-11-30T02:32:01.183Z,100327.09
2023-11-30T02:34:30.193Z,100332.28
2023-11-30T02:36:56.795Z,100319.22
2023-11-30T02:39:23.354Z,100326.19
2023-11-30T02:41:54.953Z,100320.97
2023-11-30T02:44:21.522Z,100326.19
2023-11-30T02:46:50.492Z,100327.94
2023-11-30T02:49:17.925Z,100324.50
2023-11-30T02:51:46.794Z,100325.34
2023-11-30T02:54:13.445Z,100316.75
2023-11-30T02:56:41.299Z,100316.75
2023-11-30T02:59:07.816Z,100314.94
2023-11-30T03:01:34.509Z,100316.69
2023-11-30T03:04:03.450Z,100322.81
2023-11-30T03:06:35.234Z,100315.00
2023-11-30T03:09:01.882Z,100313.25
2023-11-30T03:11:28.436Z,100308.13
2023-11-30T03:13:54.975Z,100312.47
2023-11-30T03:16:28.692Z,100308.16
2023-11-30T03:19:10.188Z,100309.88
2023-11-30T03:21:44.988Z,100312.41
2023-11-30T03:24:12.331Z,100305.53
2023-11-30T03:26:38.947Z,100305.53
2023-11-30T03:29:08.023Z,100301.16
2023-11-30T03:31:40.360Z,100307.13
2023-11-30T03:34:09.973Z,100314.84
2023-11-30T03:36:36.742Z,100308.75
2023-11-30T03:39:03.868Z,100317.34
2023-11-30T03:41:32.773Z,100306.03
2023-11-30T03:43:59.387Z,100299.16
2023-11-30T03:46:26.121Z,100306.16
2023-11-30T03:48:56.005Z,100297.38
2023-11-30T03:51:22.932Z,100299.22
2023-11-30T03:53:49.530Z,100301.81
2023-11-30T03:56:20.950Z,100304.41
2023-11-30T03:58:49.936Z,100310.47
2023-11-30T04:01:23.957Z,100312.22
2023-11-30T04:03:53.164Z,100318.19
2023-11-30T04:06:25.438Z,100315.66
2023-11-30T04:08:53.232Z,100313.06
2023-11-30T04:11:22.352Z,100307.84
2023-11-30T04:13:49.172Z,100314.75
2023-11-30T04:16:18.982Z,100306.09
2023-11-30T04:18:48.114Z,100307.03
2023-11-30T04:21:17.118Z,100303.50
2023-11-30T04:23:43.663Z,100307.84
2023-11-30T04:26:11.046Z,100300.91
2023-11-30T04:28:40.157Z,100300.81
2023-11-30T04:31:07.447Z,100302.44
2023-11-30T04:33:34.365Z,100304.06
2023-11-30T04:36:00.945Z,100305.69
2023-11-30T04:38:30.643Z,100303.88
2023-11-30T04:40:57.282Z,100310.69
2023-11-30T04:43:26.882Z,100307.94
2023-11-30T04:45:54.055Z,100306.22
2023-11-30T04:48:20.967Z,100308.81
2023-11-30T04:50:50.053Z,100309.66
2023-11-30T04:53:16.620Z,100305.22
2023-11-30T04:55:48.052Z,100305.97
2023-11-30T04:58:15.255Z,100305.13
2023-11-30T05:00:43.258Z,100302.53
2023-11-30T05:03:10.054Z,100307.66
2023-11-30T05:05:39.013Z,100301.56
2023-11-30T05:08:05.528Z,100298.06
2023-11-30T05:10:34.658Z,100307.63
2023-11-30T05:13:01.392Z,100306.78
2023-11-30T05:15:31.166Z,100307.63
2023-11-30T05:17:57.831Z,100304.09
2023-11-30T05:20:24.348Z,100299.75
2023-11-30T05:22:50.926Z,100303.19
2023-11-30T05:25:17.666Z,100304.88
2023-11-30T05:27:44.216Z,100302.19
2023-11-30T05:30:11.049Z,100302.19
2023-11-30T05:32:40.204Z,100296.94
2023-11-30T05:35:09.532Z,100305.50
2023-11-30T05:37:36.125Z,100302.00
2023-11-30T05:40:02.686Z,100309.78
2023-11-30T05:42:29.442Z,100298.47
2023-11-30T05:44:56.192Z,100307.13
2023-11-30T05:47:24.241Z,100302.81
2023-11-30T05:49:51.627Z,100311.47
2023-11-30T05:52:18.264Z,100299.31
2023-11-30T05:54:44.778Z,100303.66
2023-11-30T05:57:11.391Z,100305.31
2023-11-30T05:59:40.347Z,100304.38
2023-11-30T06:02:12.172Z,100309.41
2023-11-30T06:04:39.853Z,100309.50
2023-11-30T06:07:06.729Z,100316.41
2023-11-30T06:09:33.222Z,100313.81
2023-11-30T06:12:02.585Z,100319.00
2023-11-30T06:14:31.478Z,100314.59
2023-11-30T06:16:58.361Z,100322.41
2023-11-30T06:19:25.374Z,100325.91
2023-11-30T06:21:51.941Z,100323.25
2023-11-30T06:24:20.532Z,100327.59
2023-11-30T06:26:47.022Z,100327.59
2023-11-30T06:29:17.117Z,100330.22
2023-11-30T06:31:43.628Z,100337.09
2023-11-30T06:34:15.093Z,100331.91
2023-11-30T06:36:41.698Z,100341.38
2023-11-30T06:39:10.553Z,100335.25
2023-11-30T06:41:39.637Z,100343.91
2023-11-30T06:44:08.429Z,100335.25
2023-11-30T06:46:36.596Z,100338.66
2023-11-30T06:49:05.672Z,100337.78
2023-11-30T06:51:37.595Z,100335.97
2023-11-30T06:54:04.531Z,100334.22
2023-11-30T06:56:31.683Z,100335.97
2023-11-30T06:58:59.127Z,100334.28
2023-11-30T07:01:30.813Z,100329.97
2023-11-30T07:03:59.953Z,100331.63
2023-11-30T07:06:26.986Z,100335.97
2023-11-30T07:08:58.521Z,100336.91
2023-11-30T07:11:27.400Z,100339.53
2023-11-30T07:13:54.580Z,100335.34
2023-11-30T07:16:21.233Z,100333.66
2023-11-30T07:18:50.980Z,100335.47
2023-11-30T07:21:17.685Z,100329.56
2023-11-30T07:23:44.684Z,100339.22
2023-11-30T07:26:15.358Z,100329.00
2023-11-30T07:28:43.073Z,100335.97
2023-11-30T07:31:18.498Z,100327.44
2023-11-30T07:33:45.146Z,100331.03
2023-11-30T07:36:15.424Z,100337.19
2023-11-30T07:38:42.003Z,100347.59
2023-11-30T07:41:09.292Z,100355.22
2023-11-30T07:43:36.574Z,100350.91
2023-11-30T07:46:05.413Z,100349.28
2023-11-30T07:48:34.025Z,100345.25
2023-11-30T07:51:00.711Z,100354.91
2023-11-30T07:53:27.367Z,100356.78
2023-11-30T07:55:58.523Z,100357.84
2023-11-30T07:58:27.504Z,100359.59
2023-11-30T08:00:54.446Z,100357.88
2023-11-30T08:03:23.872Z,100361.41
2023-11-30T08:05:50.409Z,100355.28
2023-11-30T08:08:20.283Z,100359.63
2023-11-30T08:10:49.228Z,100351.84
2023-11-30T08:13:18.741Z,100356.16
2023-11-30T08:15:45.616Z,100357.88
2023-11-30T08:18:15.450Z,100354.31
2023-11-30T08:20:44.070Z,100356.00
2023-11-30T08:23:13.236Z,100355.00
2023-11-30T08:25:40.143Z,100348.00
2023-11-30T08:28:09.598Z,100347.16
2023-11-30T08:30:37.363Z,100353.28
2023-11-30T08:33:07.038Z,100352.41
2023-11-30T08:35:36.282Z,100347.28
2023-11-30T08:38:02.940Z,100351.72
2023-11-30T08:40:29.516Z,100345.75
2023-11-30T08:42:56.048Z,100340.75
2023-11-30T08:45:22.842Z,100343.47
2023-11-30T08:47:49.484Z,100336.66
2023-11-30T08:50:17.469Z,100334.97
2023-11-30T08:52:48.889Z,100332.28
2023-11-30T08:55:18.094Z,100328.78
2023-11-30T08:57:49.934Z,100339.06
2023-11-30T09:00:20.250Z,100331.09
2023-11-30T09:02:47.228Z,100339.69
2023-11-30T09:05:13.949Z,100337.81
2023-11-30T09:07:43.562Z,100335.13
2023-11-30T09:10:10.521Z,100331.59
2023-11-30T09:12:37.598Z,100334.94
2023-11-30T09:15:10.136Z,100328.81
2023-11-30T09:17:37.201Z,100331.34
2023-11-30T09:20:09.172Z,100336.44
2023-11-30T09:22:36.340Z,100338.03
2023-11-30T09:25:06.120Z,100335.31
2023-11-30T09:27:33.346Z,100336.00
2023-11-30T09:30:02.482Z,100330.69
2023-11-30T09:32:29.092Z,100334.00
2023-11-30T09:34:56.314Z,100331.31
2023-11-30T09:37:22.886Z,100336.34
2023-11-30T09:39:52.325Z,100339.63
2023-11-30T09:42:19.819Z,100344.53
2023-11-30T09:44:46.794Z,100343.56
2023-11-30T09:47:18.138Z,100335.81
2023-11-30T09:49:44.848Z,100341.03
2023-11-30T09:52:11.878Z,100338.34
2023-11-30T09:54:41.112Z,100340.06
2023-11-30T09:57:11.001Z,100337.31
2023-11-30T09:59:40.092Z,100326.63
2023-11-30T10:02:10.818Z,100334.22
2023-11-30T10:04:40.754Z,100332.88
2023-11-30T10:07:08.585Z,100338.69
2023-11-30T10:09:37.105Z,100333.16
2023-11-30T10:12:05.014Z,100323.13
2023-11-30T10:14:34.328Z,100329.72
2023-11-30T10:17:03.953Z,100324.31
2023-11-30T10:19:31.797Z,100325.06
2023-11-30T10:22:01.434Z,100325.94
2023-11-30T10:24:31.588Z,100323.25
2023-11-30T10:27:09.832Z,100326.53
2023-11-30T10:29:43.140Z,100330.84
2023-11-30T10:32:16.518Z,100322.03
2023-11-30T10:34:58.185Z,100332.28
2023-11-30T10:37:27.704Z,100328.63
2023-11-30T10:40:04.924Z,100323.28
2023-11-30T10:42:34.400Z,100329.34
2023-11-30T10:45:12.593Z,100330.81
2023-11-30T10:47:42.627Z,100326.81
2023-11-30T10:50:10.888Z,100322.97
2023-11-30T10:52:37.611Z,100323.59
2023-11-30T10:55:13.503Z,100324.44
2023-11-30T10:57:47.733Z,100323.44
2023-11-30T11:00:16.357Z,100326.72
2023-11-30T11:02:48.577Z,100328.50
2023-11-30T11:05:19.627Z,100320.69
2023-11-30T11:07:55.546Z,100324.81
2023-11-30T11:10:28.088Z,100328.06
2023-11-30T11:13:00.237Z,100328.66
2023-11-30T11:15:29.904Z,100331.03
2023-11-30T11:18:05.116Z,100332.69
2023-11-30T11:20:36.629Z,100337.69
2023-11-30T11:23:14.920Z,100339.84
2023-11-30T11:25:47.763Z,100331.53
2023-11-30T11:28:18.574Z,100337.13
2023-11-30T11:30:54.741Z,100341.41
2023-11-30T11:33:26.304Z,100338.81
2023-11-30T11:35:55.460Z,100337.03
2023-11-30T11:38:22.135Z,100345.94
2023-11-30T11:40:51.314Z,100339.81
2023-11-30T11:43:20.497Z,100337.34
2023-11-30T11:45:49.537Z,100339.25
2023-11-30T11:48:18.494Z,100335.16
2023-11-30T11:50:56.202Z,100336.06
2023-11-30T11:53:23.474Z,100336.41
2023-11-30T11:55:50.058Z,100337.03
2023-11-30T11:58:16.734Z,100329.78
2023-11-30T12:00:56.526Z,100328.78
2023-11-30T12:03:24.170Z,100331.41
2023-11-30T12:05:52.650Z,100321.72
2023-11-30T12:08:36.325Z,100320.13
2023-11-30T12:11:03.082Z,100318.28
2023-11-30T12:13:30.564Z,100314.69
2023-11-30T12:15:59.689Z,100320.34
2023-11-30T12:18:26.835Z,100314.44
2023-11-30T12:20:54.196Z,100313.69
2023-11-30T12:23:20.781Z,100312.00
2023-11-30T12:25:47.361Z,100316.47
2023-11-30T12:28:17.347Z,100309.00
2023-11-30T12:30:47.267Z,100306.88
2023-11-30T12:33:15.665Z,100303.44
2023-11-30T12:35:47.138Z,100300.13
2023-11-30T12:38:17.224Z,100296.53
2023-11-30T12:40:46.372Z,100292.84
2023-11-30T12:43:13.003Z,100302.06
2023-11-30T12:45:40.087Z,100302.13
2023-11-30T12:48:06.809Z,100309.72
2023-11-30T12:50:33.561Z,100306.88
2023-11-30T12:53:00.267Z,100298.88
2023-11-30T12:55:26.995Z,100301.34
2023-11-30T12:57:57.175Z,100313.78
2023-11-30T13:00:24.172Z,100308.56
2023-11-30T13:02:51.047Z,100312.72
2023-11-30T13:05:22.686Z,100298.97
2023-11-30T13:07:51.109Z,100306.25
2023-11-30T13:10:18.624Z,100309.63
2023-11-30T13:12:48.929Z,100312.09
2023-11-30T13:15:18.190Z,100318.25
2023-11-30T13:17:47.057Z,100312.00
2023-11-30T13:20:14.808Z,100322.53
2023-11-30T13:22:44.483Z,100323.28
2023-11-30T13:25:12.552Z,100321.50
2023-11-30T13:27:39.147Z,100324.22
2023-11-30T13:30:06.257Z,100331.03
2023-11-30T13:32:37.431Z,100325.03
2023-11-30T13:35:06.472Z,100323.38
2023-11-30T13:37:38.046Z,100322.84
2023-11-30T13:40:08.389Z,100324.81
2023-11-30T13:42:34.997Z,100325.75
2023-11-30T13:45:02.475Z,100324.22
2023-11-30T13:47:31.545Z,100323.44
2023-11-30T13:50:00.427Z,100319.84
2023-11-30T13:52:28.629Z,100325.91
2023-11-30T13:54:55.315Z,100319.75
2023-11-30T13:57:21.870Z,100319.00
2023-11-30T13:59:48.434Z,100319.09
2023-11-30T14:02:15.052Z,100322.84
2023-11-30T14:04:43.868Z,100330.19
2023-11-30T14:07:13.592Z,100339.09
2023-11-30T14:09:42.716Z,100335.22
2023-11-30T14:12:11.957Z,100325.59
2023-11-30T14:14:39.944Z,100326.50
2023-11-30T14:17:06.589Z,100324.03
2023-11-30T14:19:34.916Z,100319.75
2023-11-30T14:22:04.344Z,100326.13
2023-11-30T14:24:33.320Z,100333.22
2023-11-30T14:27:02.540Z,100329.97
2023-11-30T14:29:29.073Z,100334.44
2023-11-30T14:31:55.708Z,100326.53
2023-11-30T14:34:22.387Z,100331.75
2023-11-30T14:36:49.073Z,100330.91
2023-11-30T14:39:16.108Z,100328.31
2023-11-30T14:41:42.853Z,100329.22
2023-11-30T14:44:11.716Z,100340.78
2023-11-30T14:46:38.367Z,100346.06
2023-11-30T14:49:06.190Z,100342.72
2023-11-30T14:51:32.806Z,100343.69
2023-11-30T14:53:59.993Z,100340.16
2023-11-30T14:56:26.637Z,100347.06
2023-11-30T14:58:59.806Z,100347.84
2023-11-30T15:01:26.494Z,100345.31
2023-11-30T15:03:53.215Z,100346.16
2023-11-30T15:06:19.890Z,100347.97
2023-11-30T15:08:46.446Z,100351.69
2023-11-30T15:11:13.052Z,100350.09
2023-11-30T15:13:39.681Z,100344.03
2023-11-30T15:16:06.686Z,100350.19
2023-11-30T15:18:33.792Z,100356.31
2023-11-30T15:21:03.359Z,100351.22
2023-11-30T15:23:29.944Z,100356.63
2023-11-30T15:25:56.914Z,100348.81
2023-11-30T15:28:24.018Z,100348.91
2023-11-30T15:30:55.414Z,100349.81
2023-11-30T15:33:24.430Z,100346.47
2023-11-30T15:35:51.124Z,100344.81
2023-11-30T15:38:17.673Z,100347.50
2023-11-30T15:40:44.223Z,100340.69
2023-11-30T15:43:12.981Z,100348.44
2023-11-30T15:45:39.632Z,100352.09
2023-11-30T15:48:07.199Z,100356.44
2023-11-30T15:50:33.974Z,100353.84
2023-11-30T15:53:03.848Z,100362.56
2023-11-30T15:55:30.491Z,100357.28
2023-11-30T15:58:06.045Z,100351.31
2023-11-30T16:00:35.906Z,100362.78
2023-11-30T16:03:10.332Z,100369.09
2023-11-30T16:05:37.660Z,100365.84
2023-11-30T16:08:04.523Z,100374.59
2023-11-30T16:10:33.374Z,100371.00
2023-11-30T16:12:59.995Z,100365.81
2023-11-30T16:15:27.383Z,100365.84
2023-11-30T16:17:58.386Z,100367.69
2023-11-30T16:20:25.562Z,100365.16
2023-11-30T16:22:52.191Z,100365.25
2023-11-30T16:25:18.838Z,100364.25
2023-11-30T16:27:45.604Z,100365.09
2023-11-30T16:30:16.008Z,100370.28
2023-11-30T16:32:42.843Z,100369.56
2023-11-30T16:35:09.637Z,100374.09
2023-11-30T16:37:36.224Z,100373.25
2023-11-30T16:40:05.887Z,100375.97
2023-11-30T16:42:33.024Z,100363.97
2023-11-30T16:45:02.728Z,100361.19
2023-11-30T16:47:29.412Z,100362.91
2023-11-30T16:49:58.646Z,100362.91
2023-11-30T16:52:25.287Z,100363.03
2023-11-30T16:54:51.980Z,100365.63
2023-11-30T16:57:23.480Z,100364.16
2023-11-30T16:59:52.427Z,100362.47
2023-11-30T17:02:19.063Z,100356.44
2023-11-30T17:04:45.689Z,100352.22
2023-11-30T17:07:14.580Z,100348.03
2023-11-30T17:09:47.674Z,100351.59
2023-11-30T17:12:14.404Z,100348.59
2023-11-30T17:14:43.587Z,100345.25
2023-11-30T17:17:10.215Z,100340.13
2023-11-30T17:19:39.179Z,100339.28
2023-11-30T17:22:05.877Z,100343.66
2023-11-30T17:24:34.542Z,100350.69
2023-11-30T17:27:01.123Z,100342.00
2023-11-30T17:29:27.697Z,100356.94
2023-11-30T17:31:54.316Z,100358.78
2023-11-30T17:34:23.290Z,100362.31
2023-11-30T17:36:49.939Z,100370.19
2023-11-30T17:39:18.781Z,100360.47
2023-11-30T17:41:45.745Z,100370.84
2023-11-30T17:44:14.890Z,100370.84
2023-11-30T17:46:45.053Z,100377.84
2023-11-30T17:49:12.444Z,100374.66
2023-11-30T17:51:46.391Z,100384.47
2023-11-30T17:54:12.939Z,100383.56
2023-11-30T17:56:39.825Z,100383.56
2023-11-30T17:59:06.452Z,100388.56
2023-11-30T18:01:33.074Z,100387.72
2023-11-30T18:03:59.695Z,100382.59
2023-11-30T18:06:29.143Z,100388.56
2023-11-30T18:08:55.987Z,100383.38
2023-11-30T18:11:22.667Z,100385.91
2023-11-30T18:13:49.479Z,100385.97
2023-11-30T18:16:16.398Z,100389.66
2023-11-30T18:18:45.786Z,100393.06
2023-11-30T18:21:14.940Z,100389.41
2023-11-30T18:23:41.638Z,100385.91
2023-11-30T18:26:08.219Z,100379.81
2023-11-30T18:28:34.824Z,100388.56
2023-11-30T18:31:12.253Z,100399.88
2023-11-30T18:33:49.402Z,100402.41
2023-11-30T18:36:16.154Z,100401.66
2023-11-30T18:38:51.360Z,100401.75
2023-11-30T18:41:24.477Z,100406.19
2023-11-30T18:43:53.561Z,100414.13
2023-11-30T18:46:20.250Z,100409.78
2023-11-30T18:48:47.054Z,100411.31
2023-11-30T18:51:14.158Z,100413.16
2023-11-30T18:53:43.062Z,100413.22
2023-11-30T18:56:12.139Z,100421.78
2023-11-30T18:58:39.675Z,100410.47
2023-11-30T19:01:06.537Z,100414.91
2023-11-30T19:03:33.251Z,100415.81
2023-11-30T19:05:59.932Z,100417.59
2023-11-30T19:08:26.713Z,100419.44
2023-11-30T19:10:55.355Z,100421.13
2023-11-30T19:13:21.887Z,100421.97
2023-11-30T19:15:48.505Z,100422.19
2023-11-30T19:18:19.768Z,100422.44
2023-11-30T19:20:48.817Z,100431.09
2023-11-30T19:23:17.786Z,100429.56
2023-11-30T19:25:46.748Z,100430.34
2023-11-30T19:28:13.363Z,100431.84
2023-11-30T19:30:40.030Z,100425.72
2023-11-30T19:33:06.733Z,100423.13
2023-11-30T19:35:36.576Z,100428.41
2023-11-30T19:38:03.168Z,100417.22
2023-11-30T19:40:29.871Z,100413.75
2023-11-30T19:42:58.914Z,100416.34
2023-11-30T19:45:27.938Z,100419.75
2023-11-30T19:47:55.136Z,100423.44
2023-11-30T19:50:21.863Z,100424.41
2023-11-30T19:52:48.776Z,100434.88
2023-11-30T19:55:16.009Z,100432.28
2023-11-30T19:57:45.315Z,100433.91
2023-11-30T20:00:12.254Z,100432.16
2023-11-30T20:02:39.031Z,100431.44
2023-11-30T20:05:06.044Z,100434.16
2023-11-30T20:07:35.021Z,100435.78
2023-11-30T20:10:01.622Z,100441.03
2023-11-30T20:12:29.079Z,100443.66
2023-11-30T20:14:55.861Z,100454.75
2023-11-30T20:17:22.452Z,100455.66
2023-11-30T20:19:51.478Z,100454.03
2023-11-30T20:22:21.216Z,100448.94
2023-11-30T20:24:47.722Z,100451.53
2023-11-30T20:27:14.340Z,100439.41
2023-11-30T20:29:43.229Z,100448.25
2023-11-30T20:32:12.307Z,100452.63
2023-11-30T20:34:41.109Z,100451.94
2023-11-30T20:37:07.814Z,100455.44
2023-11-30T20:39:35.682Z,100457.13
2023-11-30T20:42:04.137Z,100457.19
2023-11-30T20:44:33.005Z,100457.38
2023-11-30T20:47:00.527Z,100464.41
2023-11-30T20:49:27.269Z,100458.50
2023-11-30T20:51:54.018Z,100465.41
2023-11-30T20:54:20.568Z,100455.84
2023-11-30T20:56:48.650Z,100457.66
2023-11-30T20:59:18.374Z,100461.28
2023-11-30T21:01:45.270Z,100464.88
2023-11-30T21:04:14.292Z,100463.13
2023-11-30T21:06:40.947Z,100466.66
2023-11-30T21:09:10.086Z,100466.78
2023-11-30T21:11:41.752Z,100477.09
2023-11-30T21:14:13.141Z,100472.69
2023-11-30T21:16:39.772Z,100473.03
2023-11-30T21:19:06.643Z,100463.00
2023-11-30T21:21:38.071Z,100475.03
2023-11-30T21:24:05.072Z,100483.66
2023-11-30T21:26:31.749Z,100483.88
2023-11-30T21:29:00.863Z,100487.31
2023-11-30T21:31:30.044Z,100487.16
2023-11-30T21:33:56.790Z,100488.09
2023-11-30T21:36:25.851Z,100498.66
2023-11-30T21:38:54.726Z,100490.88
2023-11-30T21:41:21.541Z,100492.59
2023-11-30T21:43:48.502Z,100493.31
2023-11-30T21:46:18.010Z,100503.63
2023-11-30T21:48:47.261Z,100498.44
2023-11-30T21:51:13.880Z,100506.06
2023-11-30T21:53:42.805Z,100510.41
2023-11-30T21:56:12.816Z,100509.56
2023-11-30T21:58:39.623Z,100506.13
2023-11-30T22:01:06.900Z,100506.22
2023-11-30T22:03:35.906Z,100520.06
2023-11-30T22:06:04.912Z,100514.88
2023-11-30T22:08:34.032Z,100521.75
2023-11-30T22:11:00.568Z,100530.34
2023-11-30T22:13:27.090Z,100528.72
2023-11-30T22:15:59.814Z,100526.97
2023-11-30T22:18:37.465Z,100527.66
2023-11-30T22:21:04.626Z,100526.03
2023-11-30T22:23:36.052Z,100527.75
2023-11-30T22:26:05.248Z,100528.59
2023-11-30T22:28:31.866Z,100526.91
2023-11-30T22:30:59.746Z,100532.16
2023-11-30T22:33:28.981Z,100529.59
2023-11-30T22:35:55.655Z,100539.31
2023-11-30T22:38:22.371Z,100536.75
2023-11-30T22:40:53.772Z,100535.00
2023-11-30T22:43:20.465Z,100544.59
2023-11-30T22:45:47.048Z,100548.09
2023-11-30T22:48:15.948Z,100548.09
2023-11-30T22:50:42.612Z,100543.75
2023-11-30T22:53:11.581Z,100543.75
2023-11-30T22:55:39.883Z,100537.56
2023-11-30T22:58:06.618Z,100541.72
2023-11-30T23:00:35.678Z,100540.72
2023-11-30T23:03:02.663Z,100546.75
2023-11-30T23:05:29.381Z,100550.97
2023-11-30T23:07:58.291Z,100559.50
2023-11-30T23:10:24.822Z,100555.94
2023-11-30T23:12:54.061Z,100567.16
2023-11-30T23:15:20.629Z,100562.81
2023-11-30T23:17:49.676Z,100557.53
2023-11-30T23:20:16.338Z,100566.13
2023-11-30T23:22:43.297Z,100561.88
2023-11-30T23:25:10.402Z,100565.34
2023-11-30T23:27:36.956Z,100569.63
2023-11-30T23:30:05.996Z,100567.00
2023-11-30T23:32:32.747Z,100565.25
2023-11-30T23:34:59.420Z,100564.38
2023-11-30T23:37:26.052Z,100567.84
2023-11-30T23:39:55.093Z,100571.22
2023-11-30T23:42:21.746Z,100565.16
2023-11-30T23:44:48.701Z,100571.16
2023-11-30T23:47:15.361Z,100572.13
2023-11-30T23:49:42.214Z,100574.72
2023-11-30T23:52:08.781Z,100583.34
2023-11-30T23:54:37.807Z,100579.06
2023-11-30T23:57:06.217Z,100579.84
2023-11-30T23:59:35.123Z,100581.53
